Terminal Aerodrome Forecast
Issued by NWS

Home | Current Version | Previous Version | Text Only | Print | Product List | Glossary Off
Versions: 1 2 3 4 5 6 7 8 9 10 11 12 13

000
FTUS41 KCLE 212320
TAFFDY
TAF
KFDY 212320Z 2200/2224 34009KT P6SM BKN035
      TEMPO 2206/2210 BKN025
     FM221400 04011KT P6SM BKN250=

USA.gov is the U.S. government's official web portal to all federal, state and local government web resources and services.